sensor_id;sensor_type;location;lat;lon;timestamp;pressure;altitude;pressure_sealevel;temperature;humidity
58018;BME280;43810;50.860;19.226;2023-09-08T00:02:25;99475.69;;;12.65;100.00
58018;BME280;43810;50.860;19.226;2023-09-08T00:04:51;99479.09;;;12.66;100.00
58018;BME280;43810;50.860;19.226;2023-09-08T00:07:17;99469.88;;;12.63;100.00
58018;BME280;43810;50.860;19.226;2023-09-08T00:09:43;99466.00;;;12.52;100.00
58018;BME280;43810;50.860;19.226;2023-09-08T00:12:09;99471.22;;;12.40;100.00
58018;BME280;43810;50.860;19.226;2023-09-08T00:14:35;99457.41;;;12.38;100.00
58018;BME280;43810;50.860;19.226;2023-09-08T00:17:00;99466.19;;;12.38;100.00
58018;BME280;43810;50.860;19.226;2023-09-08T00:19:27;99462.59;;;12.34;100.00
58018;BME280;43810;50.860;19.226;2023-09-08T00:21:52;99476.22;;;12.33;100.00
58018;BME280;43810;50.860;19.226;2023-09-08T00:24:19;99466.84;;;12.27;100.00
58018;BME280;43810;50.860;19.226;2023-09-08T00:26:45;99472.81;;;12.23;100.00
58018;BME280;43810;50.860;19.226;2023-09-08T00:29:11;99475.00;;;12.21;100.00
58018;BME280;43810;50.860;19.226;2023-09-08T00:31:36;99470.75;;;12.20;100.00
58018;BME280;43810;50.860;19.226;2023-09-08T00:34:02;99471.75;;;12.07;100.00
58018;BME280;43810;50.860;19.226;2023-09-08T00:36:28;99472.06;;;11.97;100.00
58018;BME280;43810;50.860;19.226;2023-09-08T00:38:54;99469.72;;;12.04;100.00
58018;BME280;43810;50.860;19.226;2023-09-08T00:41:20;99473.94;;;12.05;100.00
58018;BME280;43810;50.860;19.226;2023-09-08T00:43:46;99465.00;;;12.01;100.00
58018;BME280;43810;50.860;19.226;2023-09-08T00:46:12;99474.41;;;11.99;100.00
58018;BME280;43810;50.860;19.226;2023-09-08T00:48:38;99469.38;;;11.97;100.00
58018;BME280;43810;50.860;19.226;2023-09-08T00:51:04;99471.25;;;11.97;100.00
58018;BME280;43810;50.860;19.226;2023-09-08T00:53:33;99470.34;;;11.93;100.00
58018;BME280;43810;50.860;19.226;2023-09-08T00:55:59;99462.50;;;11.87;100.00
58018;BME280;43810;50.860;19.226;2023-09-08T00:58:25;99468.94;;;11.86;100.00
58018;BME280;43810;50.860;19.226;2023-09-08T01:00:51;99469.25;;;11.85;100.00
58018;BME280;43810;50.860;19.226;2023-09-08T01:03:17;99467.03;;;11.87;100.00
58018;BME280;43810;50.860;19.226;2023-09-08T01:05:43;99465.81;;;11.84;100.00
58018;BME280;43810;50.860;19.226;2023-09-08T01:08:12;99463.78;;;11.73;100.00
58018;BME280;43810;50.860;19.226;2023-09-08T01:10:40;99467.38;;;11.68;100.00
58018;BME280;43810;50.860;19.226;2023-09-08T01:13:08;99467.53;;;11.72;100.00
58018;BME280;43810;50.860;19.226;2023-09-08T01:15:34;99455.31;;;11.71;100.00
58018;BME280;43810;50.860;19.226;2023-09-08T01:18:00;99460.50;;;11.67;100.00
58018;BME280;43810;50.860;19.226;2023-09-08T01:20:30;99455.94;;;11.68;100.00
58018;BME280;43810;50.860;19.226;2023-09-08T01:23:35;99462.34;;;11.75;100.00
58018;BME280;43810;50.860;19.226;2023-09-08T01:26:08;99457.50;;;11.86;100.00
58018;BME280;43810;50.860;19.226;2023-09-08T01:28:35;99460.63;;;11.97;100.00
58018;BME280;43810;50.860;19.226;2023-09-08T01:31:02;99456.53;;;11.99;100.00
58018;BME280;43810;50.860;19.226;2023-09-08T01:33:28;99464.38;;;12.04;100.00
58018;BME280;43810;50.860;19.226;2023-09-08T01:35:55;99459.84;;;12.05;100.00
58018;BME280;43810;50.860;19.226;2023-09-08T01:38:21;99462.97;;;12.07;100.00
58018;BME280;43810;50.860;19.226;2023-09-08T01:40:47;99453.72;;;12.04;100.00
58018;BME280;43810;50.860;19.226;2023-09-08T01:43:13;99453.72;;;12.04;100.00
58018;BME280;43810;50.860;19.226;2023-09-08T01:45:39;99456.38;;;12.04;100.00
58018;BME280;43810;50.860;19.226;2023-09-08T01:48:05;99460.31;;;11.98;100.00
58018;BME280;43810;50.860;19.226;2023-09-08T01:50:31;99462.34;;;11.93;100.00
58018;BME280;43810;50.860;19.226;2023-09-08T01:52:57;99453.28;;;11.94;100.00
58018;BME280;43810;50.860;19.226;2023-09-08T01:55:22;99460.00;;;11.91;100.00
58018;BME280;43810;50.860;19.226;2023-09-08T01:57:48;99460.47;;;11.93;100.00
58018;BME280;43810;50.860;19.226;2023-09-08T02:00:14;99451.09;;;11.96;100.00
58018;BME280;43810;50.860;19.226;2023-09-08T02:02:40;99453.59;;;11.92;100.00
58018;BME280;43810;50.860;19.226;2023-09-08T02:05:07;99462.66;;;11.91;100.00
58018;BME280;43810;50.860;19.226;2023-09-08T02:07:34;99451.09;;;11.96;100.00
58018;BME280;43810;50.860;19.226;2023-09-08T02:09:59;99451.53;;;11.98;100.00
58018;BME280;43810;50.860;19.226;2023-09-08T02:12:25;99448.09;;;11.97;100.00
58018;BME280;43810;50.860;19.226;2023-09-08T02:14:51;99450.44;;;11.99;100.00
58018;BME280;43810;50.860;19.226;2023-09-08T02:17:17;99445.41;;;11.97;100.00
58018;BME280;43810;50.860;19.226;2023-09-08T02:19:43;99443.53;;;11.98;100.00
58018;BME280;43810;50.860;19.226;2023-09-08T02:22:09;99448.09;;;11.97;100.00
58018;BME280;43810;50.860;19.226;2023-09-08T02:24:35;99445.44;;;11.88;100.00
58018;BME280;43810;50.860;19.226;2023-09-08T02:27:01;99446.72;;;11.82;100.00
58018;BME280;43810;50.860;19.226;2023-09-08T02:29:26;99445.16;;;11.73;100.00
58018;BME280;43810;50.860;19.226;2023-09-08T02:31:52;99439.50;;;11.66;100.00
58018;BME280;43810;50.860;19.226;2023-09-08T02:34:18;99431.03;;;11.64;100.00
58018;BME280;43810;50.860;19.226;2023-09-08T02:36:44;99435.75;;;11.67;100.00
58018;BME280;43810;50.860;19.226;2023-09-08T02:39:13;99438.56;;;11.62;100.00
58018;BME280;43810;50.860;19.226;2023-09-08T02:41:40;99435.59;;;11.55;100.00
58018;BME280;43810;50.860;19.226;2023-09-08T02:44:06;99432.75;;;11.51;100.00
58018;BME280;43810;50.860;19.226;2023-09-08T02:46:32;99432.44;;;11.52;100.00
58018;BME280;43810;50.860;19.226;2023-09-08T02:48:58;99434.03;;;11.53;100.00
58018;BME280;43810;50.860;19.226;2023-09-08T02:51:24;99431.84;;;11.56;100.00
58018;BME280;43810;50.860;19.226;2023-09-08T02:53:49;99442.47;;;11.56;100.00
58018;BME280;43810;50.860;19.226;2023-09-08T02:56:15;99427.13;;;11.52;100.00
58018;BME280;43810;50.860;19.226;2023-09-08T02:58:41;99429.47;;;11.54;100.00
58018;BME280;43810;50.860;19.226;2023-09-08T03:01:12;99424.16;;;11.54;100.00
58018;BME280;43810;50.860;19.226;2023-09-08T03:03:40;99435.59;;;11.55;100.00
58018;BME280;43810;50.860;19.226;2023-09-08T03:06:07;99425.72;;;11.55;100.00
58018;BME280;43810;50.860;19.226;2023-09-08T03:08:33;99427.28;;;11.56;100.00
58018;BME280;43810;50.860;19.226;2023-09-08T03:10:59;99432.44;;;11.52;100.00
58018;BME280;43810;50.860;19.226;2023-09-08T03:13:24;99426.81;;;11.45;100.00
58018;BME280;43810;50.860;19.226;2023-09-08T03:15:52;99418.84;;;11.45;100.00
58018;BME280;43810;50.860;19.226;2023-09-08T03:18:18;99418.84;;;11.45;100.00
58018;BME280;43810;50.860;19.226;2023-09-08T03:20:50;99418.84;;;11.45;100.00
58018;BME280;43810;50.860;19.226;2023-09-08T03:23:16;99416.19;;;11.45;100.00
58018;BME280;43810;50.860;19.226;2023-09-08T03:25:43;99412.91;;;11.48;100.00
58018;BME280;43810;50.860;19.226;2023-09-08T03:28:09;99411.47;;;11.51;100.00
58018;BME280;43810;50.860;19.226;2023-09-08T03:30:35;99411.81;;;11.49;100.00
58018;BME280;43810;50.860;19.226;2023-09-08T03:33:00;99405.53;;;11.54;100.00
58018;BME280;43810;50.860;19.226;2023-09-08T03:35:27;99416.81;;;11.60;100.00
58018;BME280;43810;50.860;19.226;2023-09-08T03:37:52;99410.84;;;11.63;100.00
58018;BME280;43810;50.860;19.226;2023-09-08T03:40:18;99415.38;;;11.62;100.00
58018;BME280;43810;50.860;19.226;2023-09-08T03:42:44;99406.00;;;11.65;100.00
58018;BME280;43810;50.860;19.226;2023-09-08T03:45:10;99409.94;;;11.59;100.00
58018;BME280;43810;50.860;19.226;2023-09-08T03:47:36;99414.13;;;11.51;100.00
58018;BME280;43810;50.860;19.226;2023-09-08T03:50:02;99411.97;;;11.44;100.00
58018;BME280;43810;50.860;19.226;2023-09-08T03:52:27;99408.34;;;11.40;100.00
58018;BME280;43810;50.860;19.226;2023-09-08T03:54:53;99408.81;;;11.34;100.00
58018;BME280;43810;50.860;19.226;2023-09-08T03:57:19;99408.50;;;11.35;100.00
58018;BME280;43810;50.860;19.226;2023-09-08T03:59:45;99406.31;;;11.29;100.00
58018;BME280;43810;50.860;19.226;2023-09-08T04:02:11;99413.19;;;11.30;100.00
58018;BME280;43810;50.860;19.226;2023-09-08T04:04:37;99411.66;;;11.37;100.00
58018;BME280;43810;50.860;19.226;2023-09-08T04:07:02;99420.56;;;11.41;100.00
58018;BME280;43810;50.860;19.226;2023-09-08T04:09:28;99409.47;;;11.48;100.00
58018;BME280;43810;50.860;19.226;2023-09-08T04:11:54;99412.91;;;11.48;100.00
58018;BME280;43810;50.860;19.226;2023-09-08T04:14:21;99417.75;;;11.46;100.00
58018;BME280;43810;50.860;19.226;2023-09-08T04:16:49;99414.47;;;11.58;100.00
58018;BME280;43810;50.860;19.226;2023-09-08T04:19:14;99413.66;;;11.75;100.00
58018;BME280;43810;50.860;19.226;2023-09-08T04:21:41;99416.94;;;11.80;100.00
58018;BME280;43810;50.860;19.226;2023-09-08T04:24:07;99411.47;;;11.77;100.00
58018;BME280;43810;50.860;19.226;2023-09-08T04:26:35;99408.97;;;11.80;100.00
58018;BME280;43810;50.860;19.226;2023-09-08T04:29:01;99405.03;;;11.86;100.00
58018;BME280;43810;50.860;19.226;2023-09-08T04:31:27;99414.75;;;11.82;100.00
58018;BME280;43810;50.860;19.226;2023-09-08T04:33:53;99417.25;;;11.87;100.00
58018;BME280;43810;50.860;19.226;2023-09-08T04:36:19;99416.78;;;11.94;100.00
58018;BME280;43810;50.860;19.226;2023-09-08T04:38:45;99405.94;;;11.99;100.00
58018;BME280;43810;50.860;19.226;2023-09-08T04:41:11;99406.56;;;12.05;100.00
58018;BME280;43810;50.860;19.226;2023-09-08T04:43:37;99407.00;;;12.15;100.00
58018;BME280;43810;50.860;19.226;2023-09-08T04:46:02;99412.47;;;12.28;100.00
58018;BME280;43810;50.860;19.226;2023-09-08T04:48:29;99409.91;;;12.40;100.00
58018;BME280;43810;50.860;19.226;2023-09-08T04:50:56;99415.78;;;12.54;100.00
58018;BME280;43810;50.860;19.226;2023-09-08T04:53:22;99418.13;;;12.64;100.00
58018;BME280;43810;50.860;19.226;2023-09-08T04:55:48;99420.94;;;12.76;100.00
58018;BME280;43810;50.860;19.226;2023-09-08T04:58:14;99415.66;;;12.88;100.00
58018;BME280;43810;50.860;19.226;2023-09-08T05:00:40;99412.63;;;12.99;100.00
58018;BME280;43810;50.860;19.226;2023-09-08T05:03:06;99414.00;;;13.05;100.00
58018;BME280;43810;50.860;19.226;2023-09-08T05:05:32;99411.94;;;13.10;100.00
58018;BME280;43810;50.860;19.226;2023-09-08T05:07:58;99413.22;;;13.25;100.00
58018;BME280;43810;50.860;19.226;2023-09-08T05:10:24;99413.31;;;13.37;100.00
58018;BME280;43810;50.860;19.226;2023-09-08T05:12:51;99418.69;;;13.49;100.00
58018;BME280;43810;50.860;19.226;2023-09-08T05:15:16;99418.97;;;13.56;100.00
58018;BME280;43810;50.860;19.226;2023-09-08T05:17:43;99417.00;;;13.65;100.00
58018;BME280;43810;50.860;19.226;2023-09-08T05:20:09;99413.78;;;13.72;100.00
58018;BME280;43810;50.860;19.226;2023-09-08T05:22:35;99422.63;;;13.85;100.00
58018;BME280;43810;50.860;19.226;2023-09-08T05:25:02;99427.69;;;13.98;100.00
58018;BME280;43810;50.860;19.226;2023-09-08T05:27:28;99429.63;;;14.10;100.00
58018;BME280;43810;50.860;19.226;2023-09-08T05:29:54;99419.91;;;14.26;100.00
58018;BME280;43810;50.860;19.226;2023-09-08T05:32:20;99419.91;;;14.38;100.00
58018;BME280;43810;50.860;19.226;2023-09-08T05:34:46;99420.03;;;14.54;100.00
58018;BME280;43810;50.860;19.226;2023-09-08T05:37:12;99423.38;;;14.75;100.00
58018;BME280;43810;50.860;19.226;2023-09-08T05:39:37;99417.56;;;14.86;100.00
58018;BME280;43810;50.860;19.226;2023-09-08T05:42:03;99421.91;;;15.02;100.00
58018;BME280;43810;50.860;19.226;2023-09-08T05:44:29;99412.97;;;15.10;100.00
58018;BME280;43810;50.860;19.226;2023-09-08T05:46:55;99418.66;;;15.21;100.00
58018;BME280;43810;50.860;19.226;2023-09-08T05:49:21;99425.88;;;15.33;100.00
58018;BME280;43810;50.860;19.226;2023-09-08T05:51:47;99414.38;;;15.44;100.00
58018;BME280;43810;50.860;19.226;2023-09-08T05:54:12;99423.44;;;15.68;100.00
58018;BME280;43810;50.860;19.226;2023-09-08T05:56:39;99419.38;;;15.86;100.00
58018;BME280;43810;50.860;19.226;2023-09-08T05:59:05;99410.06;;;15.96;100.00
58018;BME280;43810;50.860;19.226;2023-09-08T06:01:31;99417.50;;;16.02;100.00
58018;BME280;43810;50.860;19.226;2023-09-08T06:03:58;99415.53;;;16.15;100.00
58018;BME280;43810;50.860;19.226;2023-09-08T06:06:24;99408.97;;;16.28;100.00
58018;BME280;43810;50.860;19.226;2023-09-08T06:08:50;99413.38;;;16.36;99.95
58018;BME280;43810;50.860;19.226;2023-09-08T06:11:17;99411.31;;;16.45;100.00
58018;BME280;43810;50.860;19.226;2023-09-08T06:13:42;99413.94;;;16.58;99.70
58018;BME280;43810;50.860;19.226;2023-09-08T06:16:08;99412.88;;;16.78;100.00
58018;BME280;43810;50.860;19.226;2023-09-08T06:18:34;99408.34;;;16.98;99.27
58018;BME280;43810;50.860;19.226;2023-09-08T06:21:08;99401.81;;;17.14;97.94
58018;BME280;43810;50.860;19.226;2023-09-08T06:23:34;99410.31;;;17.36;97.49
58018;BME280;43810;50.860;19.226;2023-09-08T06:26:01;99403.88;;;17.59;96.71
58018;BME280;43810;50.860;19.226;2023-09-08T06:28:29;99404.31;;;17.81;94.76
58018;BME280;43810;50.860;19.226;2023-09-08T06:30:55;99409.53;;;17.93;92.62
58018;BME280;43810;50.860;19.226;2023-09-08T06:33:21;99416.47;;;17.94;93.10
58018;BME280;43810;50.860;19.226;2023-09-08T06:35:50;99424.13;;;18.15;92.66
58018;BME280;43810;50.860;19.226;2023-09-08T06:38:16;99424.69;;;18.24;92.59
58018;BME280;43810;50.860;19.226;2023-09-08T06:40:42;99427.72;;;18.45;93.37
58018;BME280;43810;50.860;19.226;2023-09-08T06:43:07;99423.34;;;18.60;93.01
58018;BME280;43810;50.860;19.226;2023-09-08T06:45:33;99419.81;;;18.79;91.69
58018;BME280;43810;50.860;19.226;2023-09-08T06:47:59;99417.84;;;19.02;90.29
58018;BME280;43810;50.860;19.226;2023-09-08T06:50:26;99419.69;;;19.24;89.20
58018;BME280;43810;50.860;19.226;2023-09-08T06:52:52;99418.03;;;19.42;89.03
58018;BME280;43810;50.860;19.226;2023-09-08T06:55:18;99426.34;;;19.60;88.27
58018;BME280;43810;50.860;19.226;2023-09-08T06:57:45;99421.13;;;19.74;88.90
58018;BME280;43810;50.860;19.226;2023-09-08T07:00:13;99414.69;;;19.86;87.99
58018;BME280;43810;50.860;19.226;2023-09-08T07:02:39;99409.03;;;19.98;85.12
58018;BME280;43810;50.860;19.226;2023-09-08T07:05:05;99418.84;;;20.13;87.12
58018;BME280;43810;50.860;19.226;2023-09-08T07:07:35;99411.91;;;20.16;84.11
58018;BME280;43810;50.860;19.226;2023-09-08T07:10:02;99422.00;;;20.23;85.70
58018;BME280;43810;50.860;19.226;2023-09-08T07:12:28;99419.53;;;20.47;85.01
58018;BME280;43810;50.860;19.226;2023-09-08T07:14:54;99419.22;;;20.56;82.38
58018;BME280;43810;50.860;19.226;2023-09-08T07:17:20;99420.06;;;20.64;82.48
58018;BME280;43810;50.860;19.226;2023-09-08T07:19:46;99412.53;;;20.91;82.78
58018;BME280;43810;50.860;19.226;2023-09-08T07:22:12;99408.44;;;21.21;80.90
58018;BME280;43810;50.860;19.226;2023-09-08T07:24:38;99402.69;;;21.27;79.98
58018;BME280;43810;50.860;19.226;2023-09-08T07:27:03;99414.44;;;21.59;79.74
58018;BME280;43810;50.860;19.226;2023-09-08T07:29:30;99412.56;;;21.77;79.14
58018;BME280;43810;50.860;19.226;2023-09-08T07:31:55;99413.41;;;21.95;75.42
58018;BME280;43810;50.860;19.226;2023-09-08T07:34:21;99417.28;;;22.05;76.20
58018;BME280;43810;50.860;19.226;2023-09-08T07:36:47;99419.59;;;21.96;77.60
58018;BME280;43810;50.860;19.226;2023-09-08T07:39:13;99407.19;;;21.91;74.81
58018;BME280;43810;50.860;19.226;2023-09-08T07:41:38;99407.59;;;22.04;75.87
58018;BME280;43810;50.860;19.226;2023-09-08T07:44:06;99416.91;;;22.17;74.72
58018;BME280;43810;50.860;19.226;2023-09-08T07:46:32;99410.38;;;22.22;74.39
58018;BME280;43810;50.860;19.226;2023-09-08T07:48:59;99416.19;;;22.52;74.48
58018;BME280;43810;50.860;19.226;2023-09-08T07:51:25;99412.31;;;22.67;71.49
58018;BME280;43810;50.860;19.226;2023-09-08T07:53:53;99415.78;;;22.89;72.99
58018;BME280;43810;50.860;19.226;2023-09-08T07:56:19;99421.16;;;23.14;70.21
58018;BME280;43810;50.860;19.226;2023-09-08T07:58:45;99414.59;;;23.08;70.75
58018;BME280;43810;50.860;19.226;2023-09-08T08:01:12;99413.75;;;23.36;70.78
58018;BME280;43810;50.860;19.226;2023-09-08T08:03:38;99410.88;;;23.64;67.59
58018;BME280;43810;50.860;19.226;2023-09-08T08:06:04;99399.25;;;23.71;69.07
58018;BME280;43810;50.860;19.226;2023-09-08T08:08:31;99402.03;;;23.53;68.27
58018;BME280;43810;50.860;19.226;2023-09-08T08:10:58;99395.75;;;23.70;67.08
58018;BME280;43810;50.860;19.226;2023-09-08T08:13:24;99391.03;;;23.85;67.09
58018;BME280;43810;50.860;19.226;2023-09-08T08:15:50;99400.16;;;24.16;65.82
58018;BME280;43810;50.860;19.226;2023-09-08T08:18:16;99402.03;;;24.26;65.71
58018;BME280;43810;50.860;19.226;2023-09-08T08:20:42;99400.91;;;24.68;64.83
58018;BME280;43810;50.860;19.226;2023-09-08T08:23:08;99397.13;;;24.59;62.78
58018;BME280;43810;50.860;19.226;2023-09-08T08:25:34;99394.41;;;24.59;63.11
58018;BME280;43810;50.860;19.226;2023-09-08T08:28:00;99406.78;;;24.63;61.31
58018;BME280;43810;50.860;19.226;2023-09-08T08:30:27;99404.34;;;24.76;64.03
58018;BME280;43810;50.860;19.226;2023-09-08T08:32:53;99400.22;;;24.57;61.90
58018;BME280;43810;50.860;19.226;2023-09-08T08:35:19;99405.06;;;24.32;62.19
58018;BME280;43810;50.860;19.226;2023-09-08T08:37:45;99394.84;;;24.54;62.44
58018;BME280;43810;50.860;19.226;2023-09-08T08:40:12;99401.06;;;24.51;61.18
58018;BME280;43810;50.860;19.226;2023-09-08T08:42:39;99397.66;;;24.84;60.16
58018;BME280;43810;50.860;19.226;2023-09-08T08:45:05;99394.59;;;24.78;59.76
58018;BME280;43810;50.860;19.226;2023-09-08T08:47:32;99388.50;;;24.67;59.36
58018;BME280;43810;50.860;19.226;2023-09-08T08:49:58;99398.53;;;24.74;59.63
58018;BME280;43810;50.860;19.226;2023-09-08T08:52:28;99397.66;;;24.84;61.11
58018;BME280;43810;50.860;19.226;2023-09-08T08:54:54;99394.72;;;25.05;60.40
58018;BME280;43810;50.860;19.226;2023-09-08T08:57:21;99393.22;;;25.35;60.31
58018;BME280;43810;50.860;19.226;2023-09-08T08:59:49;99389.16;;;25.50;57.64
58018;BME280;43810;50.860;19.226;2023-09-08T09:02:17;99384.94;;;25.76;58.78
58018;BME280;43810;50.860;19.226;2023-09-08T09:04:43;99382.13;;;25.52;56.93
58018;BME280;43810;50.860;19.226;2023-09-08T09:07:10;99381.16;;;25.36;55.22
58018;BME280;43810;50.860;19.226;2023-09-08T09:09:36;99382.63;;;25.10;57.83
58018;BME280;43810;50.860;19.226;2023-09-08T09:12:02;99392.69;;;25.13;58.71
58018;BME280;43810;50.860;19.226;2023-09-08T09:14:32;99380.38;;;25.39;57.98
58018;BME280;43810;50.860;19.226;2023-09-08T09:16:59;99373.44;;;25.65;55.49
58018;BME280;43810;50.860;19.226;2023-09-08T09:19:25;99380.75;;;25.37;55.98
58018;BME280;43810;50.860;19.226;2023-09-08T09:21:54;99362.31;;;25.22;53.75
58018;BME280;43810;50.860;19.226;2023-09-08T09:24:34;99381.88;;;25.09;54.53
58018;BME280;43810;50.860;19.226;2023-09-08T09:27:00;99379.47;;;25.11;55.63
58018;BME280;43810;50.860;19.226;2023-09-08T09:29:28;99386.84;;;25.14;56.06
58018;BME280;43810;50.860;19.226;2023-09-08T09:32:02;99377.78;;;25.59;58.44
58018;BME280;43810;50.860;19.226;2023-09-08T09:34:29;99375.59;;;25.77;54.12
58018;BME280;43810;50.860;19.226;2023-09-08T09:36:55;99369.84;;;25.98;54.02
58018;BME280;43810;50.860;19.226;2023-09-08T09:39:23;99369.69;;;26.09;53.97
58018;BME280;43810;50.860;19.226;2023-09-08T09:41:56;99370.47;;;26.09;52.70
58018;BME280;43810;50.860;19.226;2023-09-08T09:44:23;99374.56;;;26.21;52.15
58018;BME280;43810;50.860;19.226;2023-09-08T09:46:52;99365.34;;;26.38;54.39
58018;BME280;43810;50.860;19.226;2023-09-08T09:49:18;99357.56;;;26.37;50.15
58018;BME280;43810;50.860;19.226;2023-09-08T09:51:46;99368.28;;;26.47;50.81
58018;BME280;43810;50.860;19.226;2023-09-08T09:54:13;99364.63;;;26.34;47.91
58018;BME280;43810;50.860;19.226;2023-09-08T09:56:39;99354.72;;;26.44;51.56
58018;BME280;43810;50.860;19.226;2023-09-08T09:59:10;99354.59;;;26.74;52.03
58018;BME280;43810;50.860;19.226;2023-09-08T10:01:37;99355.59;;;26.84;49.35
58018;BME280;43810;50.860;19.226;2023-09-08T10:04:03;99348.91;;;26.42;49.63
58018;BME280;43810;50.860;19.226;2023-09-08T10:06:35;99350.75;;;26.48;49.89
58018;BME280;43810;50.860;19.226;2023-09-08T10:09:03;99353.41;;;26.52;48.81
58018;BME280;43810;50.860;19.226;2023-09-08T10:11:38;99348.38;;;26.74;49.65
58018;BME280;43810;50.860;19.226;2023-09-08T10:14:07;99347.31;;;26.44;50.75
58018;BME280;43810;50.860;19.226;2023-09-08T10:16:38;99344.19;;;26.46;49.00
58018;BME280;43810;50.860;19.226;2023-09-08T10:19:09;99342.34;;;26.63;50.51
58018;BME280;43810;50.860;19.226;2023-09-08T10:21:57;99342.22;;;27.09;51.11
58018;BME280;43810;50.860;19.226;2023-09-08T10:24:27;99336.06;;;27.25;48.15
58018;BME280;43810;50.860;19.226;2023-09-08T10:29:29;99335.44;;;27.73;46.46
58018;BME280;43810;50.860;19.226;2023-09-08T10:31:56;99330.41;;;27.72;45.89
58018;BME280;43810;50.860;19.226;2023-09-08T10:34:24;99327.63;;;27.39;45.69
58018;BME280;43810;50.860;19.226;2023-09-08T10:36:52;99333.84;;;27.00;46.30
58018;BME280;43810;50.860;19.226;2023-09-08T10:39:34;99322.13;;;26.83;46.08
58018;BME280;43810;50.860;19.226;2023-09-08T10:44:43;99313.28;;;26.76;49.14
58018;BME280;43810;50.860;19.226;2023-09-08T10:47:09;99318.47;;;26.90;47.41
58018;BME280;43810;50.860;19.226;2023-09-08T10:49:35;99309.88;;;26.91;47.75
58018;BME280;43810;50.860;19.226;2023-09-08T10:52:09;99310.63;;;26.92;49.81
58018;BME280;43810;50.860;19.226;2023-09-08T10:54:47;99302.22;;;27.22;45.25
58018;BME280;43810;50.860;19.226;2023-09-08T10:57:17;99301.66;;;27.31;46.44
58018;BME280;43810;50.860;19.226;2023-09-08T10:59:54;99299.22;;;27.37;46.43
58018;BME280;43810;50.860;19.226;2023-09-08T11:02:42;99301.94;;;26.97;47.45
58018;BME280;43810;50.860;19.226;2023-09-08T11:05:14;99293.78;;;27.17;49.51
58018;BME280;43810;50.860;19.226;2023-09-08T11:07:43;99290.88;;;27.60;45.86
58018;BME280;43810;50.860;19.226;2023-09-08T11:10:09;99303.59;;;27.50;49.12
58018;BME280;43810;50.860;19.226;2023-09-08T11:12:36;99301.00;;;27.43;48.25
58018;BME280;43810;50.860;19.226;2023-09-08T11:15:07;99300.78;;;27.70;50.42
58018;BME280;43810;50.860;19.226;2023-09-08T11:17:36;99296.19;;;27.83;45.06
58018;BME280;43810;50.860;19.226;2023-09-08T11:20:05;99296.09;;;27.71;48.08
58018;BME280;43810;50.860;19.226;2023-09-08T11:22:37;99293.81;;;27.85;46.93
58018;BME280;43810;50.860;19.226;2023-09-08T11:25:06;99289.19;;;28.15;46.95
58018;BME280;43810;50.860;19.226;2023-09-08T11:27:33;99295.09;;;28.13;47.22
58018;BME280;43810;50.860;19.226;2023-09-08T11:29:59;99289.88;;;28.19;47.09
58018;BME280;43810;50.860;19.226;2023-09-08T11:32:32;99294.88;;;27.55;47.33
58018;BME280;43810;50.860;19.226;2023-09-08T11:35:04;99290.97;;;27.73;45.94
58018;BME280;43810;50.860;19.226;2023-09-08T11:37:38;99283.13;;;27.91;48.32
58018;BME280;43810;50.860;19.226;2023-09-08T11:40:05;99284.16;;;27.81;46.34
58018;BME280;43810;50.860;19.226;2023-09-08T11:42:35;99280.56;;;27.84;44.40
58018;BME280;43810;50.860;19.226;2023-09-08T11:45:00;99280.47;;;27.71;46.37
58018;BME280;43810;50.860;19.226;2023-09-08T11:47:29;99277.00;;;27.71;45.52
58018;BME280;43810;50.860;19.226;2023-09-08T11:49:57;99286.88;;;27.81;45.84
58018;BME280;43810;50.860;19.226;2023-09-08T11:52:23;99276.06;;;27.93;44.45
58018;BME280;43810;50.860;19.226;2023-09-08T11:54:51;99278.03;;;28.09;45.87
58018;BME280;43810;50.860;19.226;2023-09-08T11:57:17;99271.97;;;27.85;45.29
58018;BME280;43810;50.860;19.226;2023-09-08T11:59:44;99267.78;;;27.64;44.00
58018;BME280;43810;50.860;19.226;2023-09-08T12:02:14;99268.78;;;27.71;45.92
58018;BME280;43810;50.860;19.226;2023-09-08T12:04:39;99264.88;;;28.04;44.34
58018;BME280;43810;50.860;19.226;2023-09-08T12:07:12;99268.25;;;28.24;47.44
58018;BME280;43810;50.860;19.226;2023-09-08T12:09:40;99272.56;;;27.93;45.59
58018;BME280;43810;50.860;19.226;2023-09-08T12:12:11;99259.25;;;27.62;45.91
58018;BME280;43810;50.860;19.226;2023-09-08T12:14:43;99262.63;;;27.66;44.62
58018;BME280;43810;50.860;19.226;2023-09-08T12:17:09;99268.28;;;27.92;44.69
58018;BME280;43810;50.860;19.226;2023-09-08T12:19:35;99246.94;;;28.19;43.72
58018;BME280;43810;50.860;19.226;2023-09-08T12:22:06;99256.56;;;28.24;43.11
58018;BME280;43810;50.860;19.226;2023-09-08T12:27:23;99244.81;;;28.56;42.14
58018;BME280;43810;50.860;19.226;2023-09-08T12:29:56;99247.53;;;28.56;40.38
58018;BME280;43810;50.860;19.226;2023-09-08T12:32:24;99248.19;;;28.31;42.94
58018;BME280;43810;50.860;19.226;2023-09-08T12:34:51;99238.97;;;28.25;40.84
58018;BME280;43810;50.860;19.226;2023-09-08T12:37:25;99240.75;;;28.60;40.27
58018;BME280;43810;50.860;19.226;2023-09-08T12:39:55;99235.47;;;28.95;39.06
58018;BME280;43810;50.860;19.226;2023-09-08T12:42:22;99239.69;;;28.42;39.08
58018;BME280;43810;50.860;19.226;2023-09-08T12:44:51;99241.91;;;28.18;41.36
58018;BME280;43810;50.860;19.226;2023-09-08T12:47:17;99234.84;;;28.04;43.39
58018;BME280;43810;50.860;19.226;2023-09-08T12:49:43;99238.97;;;28.25;44.29
58018;BME280;43810;50.860;19.226;2023-09-08T12:52:09;99237.16;;;28.63;42.37
58018;BME280;43810;50.860;19.226;2023-09-08T12:54:35;99228.97;;;28.63;38.45